Time;durP1;ratioP1;P1;durP2;ratioP2;P2;SDS_P1;SDS_P2;PMS_P1;PMS_P2;Temp;Humidity;BMP_temperature;BMP_pressure;BME280_temperature;BME280_humidity;BME280_pressure;Samples;Min_cycle;Max_cycle;Signal;HPM_P1;HPM_P2
2023/07/05 04:01:42;;;;;;;3.40;1.17;;;19.00;80.30;;;;;;5483366;23;20493;-78
2023/07/05 04:04:09;;;;;;;2.43;1.30;;;19.00;80.30;;;;;;4999560;28;20540;-78
2023/07/05 04:06:36;;;;;;;2.10;1.00;;;18.80;81.00;;;;;;4999382;28;20453;-78
2023/07/05 04:09:03;;;;;;;1.80;1.10;;;18.80;81.00;;;;;;4999715;28;21052;-78
2023/07/05 04:11:30;;;;;;;1.90;1.00;;;18.90;80.90;;;;;;5009544;28;20577;-78
2023/07/05 04:13:57;;;;;;;1.80;1.10;;;18.70;81.70;;;;;;5036818;23;20502;-75
2023/07/05 04:16:26;;;;;;;2.87;1.23;;;18.50;82.30;;;;;;4993775;28;20481;-76
2023/07/05 04:18:55;;;;;;;3.00;1.00;;;18.50;82.60;;;;;;4993655;28;21077;-76
2023/07/05 04:21:23;;;;;;;2.63;1.77;;;18.50;82.80;;;;;;4995906;28;20452;-75
2023/07/05 04:23:50;;;;;;;2.57;1.20;;;18.50;82.90;;;;;;5000599;28;20452;-76
2023/07/05 04:26:19;;;;;;;2.73;1.10;;;18.40;83.20;;;;;;5017596;28;20444;-76
2023/07/05 04:28:46;;;;;;;2.00;0.93;;;18.40;83.20;;;;;;5017536;28;20452;-76
2023/07/05 04:31:17;;;;;;;1.83;1.00;;;18.50;82.90;;;;;;5017550;28;20453;-76
2023/07/05 04:33:43;;;;;;;2.23;1.03;;;18.60;83.00;;;;;;5017371;28;20527;-76
2023/07/05 04:36:12;;;;;;;1.90;1.20;;;18.70;82.30;;;;;;5017333;28;20574;-76
2023/07/05 04:38:38;;;;;;;2.83;1.20;;;18.60;82.70;;;;;;5017056;28;20832;-76
2023/07/05 04:41:05;;;;;;;2.50;1.50;;;18.40;83.30;;;;;;5017025;28;20941;-76
2023/07/05 04:43:32;;;;;;;2.07;1.00;;;18.40;83.70;;;;;;5016903;28;20974;-76
2023/07/05 04:46:00;;;;;;;2.63;1.50;;;18.60;83.10;;;;;;5016930;28;20865;-76
2023/07/05 04:48:29;;;;;;;1.80;1.13;;;18.80;82.30;;;;;;5017517;28;20448;-76
2023/07/05 04:50:57;;;;;;;2.10;1.10;;;19.00;81.80;;;;;;5017335;28;20475;-76
2023/07/05 04:53:27;;;;;;;2.20;1.10;;;19.00;81.90;;;;;;5016854;28;20871;-76
2023/07/05 04:55:56;;;;;;;1.73;0.90;;;18.90;82.00;;;;;;5016985;28;20475;-75
2023/07/05 04:58:25;;;;;;;1.87;0.97;;;18.90;82.40;;;;;;5017280;28;20436;-75
2023/07/05 05:00:52;;;;;;;1.90;1.10;;;18.90;82.40;;;;;;5017147;28;20440;-76
2023/07/05 05:03:20;;;;;;;2.00;1.40;;;18.80;82.70;;;;;;5017238;28;20494;-75
2023/07/05 05:05:49;;;;;;;2.67;1.17;;;18.90;83.20;;;;;;5016861;28;20464;-75
2023/07/05 05:08:16;;;;;;;1.90;1.00;;;19.10;82.30;;;;;;5016786;28;20440;-76
2023/07/05 05:10:44;;;;;;;1.80;1.03;;;19.20;82.20;;;;;;5016716;28;20451;-76
2023/07/05 05:13:11;;;;;;;2.10;1.10;;;19.30;81.80;;;;;;5016714;28;20498;-76
2023/07/05 05:15:38;;;;;;;2.10;1.03;;;19.30;81.40;;;;;;5016271;28;20476;-76
2023/07/05 05:18:05;;;;;;;2.63;1.10;;;19.20;81.80;;;;;;5016271;28;20487;-76
2023/07/05 05:20:32;;;;;;;3.17;1.03;;;19.20;81.90;;;;;;5016254;28;20483;-76
2023/07/05 05:22:59;;;;;;;2.47;1.30;;;19.30;81.60;;;;;;5016513;28;20455;-75
2023/07/05 05:25:26;;;;;;;2.10;1.13;;;19.40;81.80;;;;;;5016334;28;20539;-76
2023/07/05 05:27:54;;;;;;;2.23;1.10;;;19.50;81.20;;;;;;5016439;28;20447;-76
2023/07/05 05:30:21;;;;;;;2.00;1.10;;;19.50;81.00;;;;;;5016104;28;20502;-76
2023/07/05 05:32:48;;;;;;;1.90;1.00;;;19.30;81.60;;;;;;5016268;28;20444;-77
2023/07/05 05:35:15;;;;;;;2.87;1.27;;;19.40;80.90;;;;;;5016284;28;20480;-75
2023/07/05 05:37:42;;;;;;;2.40;1.50;;;19.40;81.10;;;;;;5016201;28;20526;-75
2023/07/05 05:40:10;;;;;;;2.10;1.20;;;19.20;81.70;;;;;;5016525;28;20449;-75
2023/07/05 05:42:37;;;;;;;1.80;1.00;;;19.30;81.70;;;;;;5015828;28;21016;-75
2023/07/05 05:45:06;;;;;;;1.80;1.10;;;19.40;81.60;;;;;;5016080;28;20523;-75
2023/07/05 05:47:33;;;;;;;1.70;0.93;;;19.60;81.40;;;;;;5016045;28;20499;-76
2023/07/05 05:49:59;;;;;;;2.17;1.20;;;19.90;80.20;;;;;;5016118;28;20447;-77
2023/07/05 05:52:26;;;;;;;2.77;1.40;;;20.00;79.90;;;;;;5015689;28;20809;-77
2023/07/05 05:54:53;;;;;;;2.00;1.07;;;20.10;79.30;;;;;;5015989;28;20479;-74
2023/07/05 05:57:19;;;;;;;1.90;1.17;;;20.10;80.00;;;;;;5015853;28;20484;-76
2023/07/05 05:59:46;;;;;;;1.90;1.00;;;20.30;79.30;;;;;;5015778;28;20463;-77
2023/07/05 06:02:14;;;;;;;1.80;1.20;;;20.20;78.60;;;;;;5015646;28;20975;-76
2023/07/05 06:04:41;;;;;;;2.77;1.10;;;20.00;79.60;;;;;;5015714;28;20530;-76
2023/07/05 06:07:08;;;;;;;2.10;1.03;;;20.20;79.50;;;;;;5015796;28;20448;-76
2023/07/05 06:09:38;;;;;;;2.20;1.00;;;20.50;78.60;;;;;;5015649;28;20451;-77
2023/07/05 06:12:05;;;;;;;2.00;1.10;;;20.80;77.20;;;;;;5015598;28;20883;-77
2023/07/05 06:14:32;;;;;;;1.83;1.20;;;21.00;76.70;;;;;;5015163;28;21063;-77
2023/07/05 06:16:59;;;;;;;2.30;1.30;;;21.00;77.40;;;;;;5015185;28;21016;-76
2023/07/05 06:19:27;;;;;;;1.73;0.90;;;21.20;76.50;;;;;;5015572;28;20453;-77
2023/07/05 06:21:53;;;;;;;2.23;1.03;;;21.60;75.10;;;;;;5015226;28;20440;-77
2023/07/05 06:24:20;;;;;;;2.20;1.47;;;21.80;74.30;;;;;;5015292;28;20468;-77
2023/07/05 06:26:47;;;;;;;2.70;1.30;;;21.70;74.20;;;;;;5015722;28;20448;-77
2023/07/05 06:29:13;;;;;;;2.00;1.20;;;21.80;75.00;;;;;;5015451;28;20452;-77
2023/07/05 06:31:40;;;;;;;2.70;1.07;;;21.80;74.00;;;;;;5015345;28;20452;-77
2023/07/05 06:34:07;;;;;;;2.03;1.20;;;21.70;74.40;;;;;;5015228;28;20477;-77
2023/07/05 06:36:35;;;;;;;2.07;1.00;;;21.70;74.30;;;;;;5015269;28;20448;-78
2023/07/05 06:39:01;;;;;;;1.93;1.20;;;21.90;73.80;;;;;;5015463;28;20448;-76
2023/07/05 06:41:28;;;;;;;2.07;1.10;;;22.00;73.60;;;;;;5015598;28;20445;-76
2023/07/05 06:43:54;;;;;;;2.00;1.20;;;22.00;73.40;;;;;;5014399;28;20480;-76
2023/07/05 06:46:21;;;;;;;2.10;1.50;;;22.00;73.90;;;;;;5015067;28;20445;-76
2023/07/05 06:48:49;;;;;;;3.13;1.10;;;21.90;74.70;;;;;;5015027;28;20441;-76
2023/07/05 06:51:16;;;;;;;1.90;1.13;;;21.80;75.80;;;;;;5014733;28;20937;-76
2023/07/05 06:53:44;;;;;;;3.00;1.60;;;21.90;75.70;;;;;;5014848;28;20526;-76
2023/07/05 06:56:11;;;;;;;3.60;2.07;;;21.90;77.90;;;;;;5014906;28;20503;-75
2023/07/05 06:58:38;;;;;;;3.03;1.70;;;21.60;79.80;;;;;;5014396;28;21020;-77
2023/07/05 07:01:05;;;;;;;2.77;1.40;;;21.50;80.60;;;;;;5015619;28;20499;-78
2023/07/05 07:03:33;;;;;;;2.40;1.43;;;21.40;80.50;;;;;;5015319;28;20511;-78
2023/07/05 07:06:00;;;;;;;2.90;1.50;;;21.20;80.80;;;;;;5018130;28;20452;-78
2023/07/05 07:08:30;;;;;;;3.10;1.43;;;21.00;81.00;;;;;;5017931;28;20867;-78
2023/07/05 07:11:01;;;;;;;2.33;1.40;;;20.70;81.90;;;;;;5016183;28;20559;-76
2023/07/05 07:13:28;;;;;;;2.00;1.00;;;20.40;83.40;;;;;;5015056;28;20960;-77
2023/07/05 07:16:02;;;;;;;2.73;1.27;;;20.20;83.50;;;;;;5015056;28;20476;-77
2023/07/05 07:18:29;;;;;;;2.30;1.30;;;20.20;83.80;;;;;;5014213;28;20918;-77
2023/07/05 07:20:56;;;;;;;2.20;1.03;;;20.10;84.00;;;;;;5014837;28;20449;-77
2023/07/05 07:23:23;;;;;;;6.33;1.30;;;20.20;83.60;;;;;;5015070;28;20499;-77
2023/07/05 07:25:59;;;;;;;1.87;0.80;;;20.40;84.50;;;;;;5014901;28;20522;-77
2023/07/05 07:28:27;;;;;;;3.23;1.13;;;20.80;83.90;;;;;;5014598;28;20949;-77
2023/07/05 07:30:53;;;;;;;1.90;1.10;;;20.80;82.10;;;;;;5015079;28;20452;-77
2023/07/05 07:33:20;;;;;;;1.90;1.00;;;20.80;81.90;;;;;;5014901;28;20452;-77
2023/07/05 07:35:48;;;;;;;2.67;1.10;;;21.00;82.60;;;;;;5014877;28;20507;-77
2023/07/05 07:38:14;;;;;;;1.60;0.90;;;21.00;80.70;;;;;;5015563;28;20488;-77
2023/07/05 07:40:41;;;;;;;1.63;0.83;;;21.00;81.30;;;;;;5015996;28;20511;-77
2023/07/05 07:43:08;;;;;;;2.13;1.03;;;21.10;82.30;;;;;;5015658;28;20451;-77
2023/07/05 07:45:36;;;;;;;2.07;1.20;;;21.20;81.10;;;;;;5015574;28;20472;-77
2023/07/05 07:48:03;;;;;;;1.87;0.90;;;21.20;80.80;;;;;;5015766;28;20883;-77
2023/07/05 07:50:31;;;;;;;1.90;0.97;;;21.20;79.70;;;;;;5014222;28;20543;-77
2023/07/05 07:52:57;;;;;;;1.87;1.10;;;20.90;80.00;;;;;;5014529;28;20447;-77
2023/07/05 07:55:24;;;;;;;2.30;1.30;;;21.00;80.60;;;;;;5013994;28;20471;-77
2023/07/05 07:57:51;;;;;;;2.00;1.10;;;20.90;81.30;;;;;;5014474;28;20502;-77
2023/07/05 08:00:18;;;;;;;1.87;0.90;;;21.00;81.60;;;;;;5014172;28;20976;-77
2023/07/05 08:02:46;;;;;;;1.87;1.03;;;21.00;80.40;;;;;;5014103;28;20472;-75
2023/07/05 08:05:14;;;;;;;2.20;1.10;;;20.90;81.10;;;;;;5013777;28;20467;-75
2023/07/05 08:07:41;;;;;;;1.70;0.80;;;21.00;80.60;;;;;;5013866;28;20527;-76
2023/07/05 08:10:09;;;;;;;2.43;0.90;;;20.80;79.50;;;;;;5014699;28;20445;-75
2023/07/05 08:12:35;;;;;;;1.80;0.90;;;20.60;79.60;;;;;;5013385;28;20444;-76
2023/07/05 08:15:02;;;;;;;1.90;1.00;;;20.50;79.90;;;;;;5013415;28;20480;-76
2023/07/05 08:17:29;;;;;;;1.80;0.83;;;20.30;80.10;;;;;;5013416;28;20491;-76
2023/07/05 08:19:57;;;;;;;2.37;1.07;;;20.10;81.30;;;;;;5013778;28;20484;-76
2023/07/05 08:22:24;;;;;;;1.80;1.00;;;20.10;81.50;;;;;;5013428;28;20476;-76
2023/07/05 08:24:51;;;;;;;2.30;1.17;;;20.20;81.70;;;;;;5013336;28;20941;-76
2023/07/05 08:27:18;;;;;;;1.80;0.80;;;20.20;81.70;;;;;;5013042;28;20538;-75
2023/07/05 08:29:45;;;;;;;2.43;1.30;;;20.20;81.80;;;;;;5013422;28;20805;-76
2023/07/05 08:32:11;;;;;;;3.57;1.20;;;20.10;80.90;;;;;;5013327;28;20452;-74
2023/07/05 08:34:38;;;;;;;2.53;0.93;;;20.10;81.40;;;;;;5013520;28;20483;-75
2023/07/05 08:37:06;;;;;;;1.70;0.90;;;20.20;81.40;;;;;;5013310;28;20455;-75
2023/07/05 08:39:33;;;;;;;2.07;0.90;;;20.40;80.60;;;;;;5013471;28;20436;-76
2023/07/05 08:42:40;;;;;;;2.17;0.83;;;20.50;80.90;;;;;;5013260;28;20478;-76
2023/07/05 08:45:16;;;;;;;1.90;1.00;;;20.70;80.90;;;;;;4993266;28;20885;-76
2023/07/05 08:47:47;;;;;;;1.90;0.90;;;20.80;79.10;;;;;;5013462;28;20444;-76
2023/07/05 08:50:22;;;;;;;1.80;0.80;;;20.80;80.20;;;;;;5013200;28;20440;-75
2023/07/05 08:52:54;;;;;;;1.70;0.90;;;21.00;78.50;;;;;;5013174;28;20491;-76
2023/07/05 08:55:28;;;;;;;1.87;0.80;;;20.80;79.60;;;;;;5013070;28;20499;-75
2023/07/05 08:57:56;;;;;;;3.13;0.87;;;21.00;80.00;;;;;;5013095;28;20518;-75
2023/07/05 09:00:26;;;;;;;1.90;1.00;;;21.00;79.20;;;;;;5013027;28;20530;-75
2023/07/05 09:02:53;;;;;;;2.20;0.93;;;21.10;78.90;;;;;;5013084;28;20444;-75
2023/07/05 09:05:30;;;;;;;1.87;0.90;;;21.10;77.70;;;;;;5013182;28;20887;-75
2023/07/05 09:08:09;;;;;;;2.17;1.30;;;20.90;77.60;;;;;;5015910;28;20527;-75
2023/07/05 09:10:41;;;;;;;2.00;0.70;;;20.90;78.60;;;;;;5016959;28;20431;-75
2023/07/05 09:13:15;;;;;;;2.07;0.90;;;21.40;80.60;;;;;;5016820;28;20847;-75
2023/07/05 09:15:49;;;;;;;1.80;0.90;;;21.80;77.80;;;;;;5016329;28;21078;-75
2023/07/05 09:18:22;;;;;;;1.93;1.00;;;22.20;77.20;;;;;;5016660;28;20467;-75
2023/07/05 09:20:58;;;;;;;2.00;1.20;;;22.40;76.50;;;;;;5016756;28;20583;-75
2023/07/05 09:23:33;;;;;;;2.10;0.90;;;22.30;75.10;;;;;;5016453;28;20439;-75
2023/07/05 09:26:06;;;;;;;2.63;1.10;;;22.00;74.20;;;;;;5016437;28;20463;-75
2023/07/05 09:28:37;;;;;;;2.07;1.10;;;22.00;71.60;;;;;;5016443;28;20480;-76
2023/07/05 09:31:11;;;;;;;1.73;0.90;;;22.00;73.90;;;;;;5017214;28;20848;-75
2023/07/05 09:33:42;;;;;;;1.70;0.80;;;22.30;74.00;;;;;;5016235;28;20981;-75
2023/07/05 09:36:14;;;;;;;2.03;0.90;;;22.40;74.20;;;;;;5016295;28;20437;-76
2023/07/05 09:38:46;;;;;;;1.70;1.00;;;22.60;72.00;;;;;;5016107;28;20468;-76
2023/07/05 09:41:18;;;;;;;2.93;1.00;;;23.00;68.20;;;;;;5016185;28;20433;-76
2023/07/05 09:43:45;;;;;;;2.27;1.30;;;22.90;69.30;;;;;;5016072;28;20524;-76
2023/07/05 09:46:17;;;;;;;1.90;1.03;;;22.90;68.10;;;;;;5016044;28;20444;-75
2023/07/05 09:48:46;;;;;;;1.83;0.97;;;22.80;68.80;;;;;;5016321;28;20428;-75
2023/07/05 09:51:13;;;;;;;1.90;1.13;;;22.90;66.90;;;;;;5016036;28;20803;-75
2023/07/05 09:53:47;;;;;;;1.90;1.20;;;23.20;66.70;;;;;;5015520;28;20949;-75
2023/07/05 09:56:16;;;;;;;1.90;1.03;;;23.00;67.70;;;;;;5016111;28;20472;-75
2023/07/05 09:58:44;;;;;;;2.00;1.27;;;23.10;65.70;;;;;;5015735;28;20487;-75
2023/07/05 10:01:16;;;;;;;1.77;1.00;;;23.20;64.80;;;;;;5015771;28;20449;-75
2023/07/05 10:03:52;;;;;;;2.00;1.03;;;23.30;65.40;;;;;;5015900;28;20491;-76
2023/07/05 10:06:20;;;;;;;2.33;1.13;;;23.30;65.40;;;;;;5015864;28;20878;-75
2023/07/05 10:08:51;;;;;;;2.20;1.23;;;23.50;64.10;;;;;;5015855;28;20539;-75
2023/07/05 10:11:27;;;;;;;2.00;1.10;;;23.40;62.30;;;;;;5015908;28;20441;-75
2023/07/05 10:14:03;;;;;;;1.80;1.10;;;23.30;61.60;;;;;;5015563;28;20560;-75
2023/07/05 10:16:51;;;;;;;2.50;1.20;;;23.30;61.20;;;;;;5029062;23;20433;-74
2023/07/05 10:19:39;;;;;;;2.57;1.17;;;23.30;60.60;;;;;;4975609;28;20991;-75
2023/07/05 10:22:13;;;;;;;2.40;1.40;;;23.10;59.40;;;;;;4976268;28;20514;-75
2023/07/05 10:24:45;;;;;;;2.33;1.40;;;23.10;60.30;;;;;;4976657;28;20426;-74
2023/07/05 10:27:25;;;;;;;2.13;1.47;;;23.10;57.70;;;;;;4984188;28;20515;-75
2023/07/05 10:30:00;;;;;;;2.10;1.43;;;23.20;59.20;;;;;;4995728;28;20437;-75
2023/07/05 10:32:27;;;;;;;3.70;1.27;;;23.20;56.70;;;;;;4995858;28;20433;-74
2023/07/05 10:34:55;;;;;;;1.77;1.27;;;23.30;56.80;;;;;;4995614;28;20449;-75
2023/07/05 10:37:29;;;;;;;2.17;1.37;;;23.40;54.20;;;;;;4995659;28;20465;-75
2023/07/05 10:39:58;;;;;;;1.87;1.13;;;23.40;54.40;;;;;;4995334;28;20559;-72
2023/07/05 10:42:25;;;;;;;2.20;1.50;;;23.40;55.70;;;;;;4995414;28;20457;-73
2023/07/05 10:44:53;;;;;;;1.80;1.10;;;23.40;54.50;;;;;;4995342;28;20846;-73
2023/07/05 10:47:20;;;;;;;2.03;1.23;;;23.60;53.00;;;;;;4995197;28;20539;-71
2023/07/05 10:49:51;;;;;;;2.77;1.40;;;23.60;52.80;;;;;;4995285;28;20445;-71
2023/07/05 10:52:19;;;;;;;2.30;1.53;;;23.70;53.80;;;;;;4994910;28;20457;-70
2023/07/05 10:54:50;;;;;;;2.27;1.53;;;23.70;53.10;;;;;;4995131;28;20453;-72
2023/07/05 10:57:22;;;;;;;2.20;1.50;;;23.90;51.90;;;;;;4994752;28;20990;-72
2023/07/05 10:59:56;;;;;;;2.00;1.40;;;24.10;50.40;;;;;;4995157;28;20520;-72
2023/07/05 11:02:37;;;;;;;2.10;1.30;;;24.10;50.50;;;;;;4995006;28;20426;-72
2023/07/05 11:05:16;;;;;;;2.37;1.50;;;24.30;51.80;;;;;;4994874;28;21013;-73
2023/07/05 11:07:44;;;;;;;2.43;1.50;;;24.50;49.70;;;;;;4994914;28;20500;-73
2023/07/05 11:10:13;;;;;;;2.60;1.53;;;24.30;48.10;;;;;;4994879;28;20441;-71
2023/07/05 11:12:42;;;;;;;1.97;1.40;;;24.20;50.10;;;;;;4994977;28;20449;-73
2023/07/05 11:15:14;;;;;;;2.10;1.20;;;24.20;48.50;;;;;;4994889;28;20489;-75
2023/07/05 11:17:42;;;;;;;2.20;1.40;;;24.10;48.40;;;;;;4994775;28;20531;-74
2023/07/05 11:20:41;;;;;;;2.10;1.30;;;23.80;46.70;;;;;;4994878;28;20492;-75
2023/07/05 11:23:09;;;;;;;2.20;1.63;;;23.80;48.60;;;;;;4994586;28;20911;-75
2023/07/05 11:25:58;;;;;;;3.20;1.30;;;23.80;47.00;;;;;;4994935;28;20445;-74
2023/07/05 11:28:33;;;;;;;2.23;1.37;;;24.00;48.00;;;;;;4994753;28;20527;-74
2023/07/05 11:31:00;;;;;;;2.00;1.27;;;24.20;48.70;;;;;;4995629;28;20440;-74
2023/07/05 11:33:27;;;;;;;2.70;1.33;;;24.30;48.60;;;;;;4994449;28;20458;-74
2023/07/05 11:35:56;;;;;;;2.00;1.40;;;24.40;47.20;;;;;;4994591;28;20453;-75
2023/07/05 11:39:02;;;;;;;2.60;1.63;;;24.70;48.00;;;;;;4994113;28;20472;-75
2023/07/05 11:41:32;;;;;;;3.47;1.70;;;25.00;47.50;;;;;;4994649;28;20512;-75
2023/07/05 11:44:02;;;;;;;2.77;1.27;;;25.20;47.50;;;;;;4994517;28;20488;-74
2023/07/05 11:46:38;;;;;;;2.70;1.60;;;25.10;46.70;;;;;;4994450;28;20437;-74
2023/07/05 11:49:32;;;;;;;2.10;1.40;;;25.00;46.00;;;;;;4994062;28;21004;-74
2023/07/05 11:52:04;;;;;;;1.90;1.23;;;25.20;47.70;;;;;;4994303;28;20442;-74
2023/07/05 11:54:37;;;;;;;1.90;1.30;;;25.30;44.50;;;;;;4994305;28;20493;-74
2023/07/05 11:57:09;;;;;;;2.20;1.40;;;25.30;44.70;;;;;;4993913;28;20978;-73
2023/07/05 11:59:41;;;;;;;1.80;1.03;;;24.90;44.20;;;;;;4994191;28;20835;-73
2023/07/05 12:02:23;;;;;;;2.03;1.40;;;25.00;44.60;;;;;;4994194;28;20446;-72
2023/07/05 12:04:54;;;;;;;1.93;1.30;;;25.00;43.90;;;;;;4994396;28;20537;-72
2023/07/05 12:07:21;;;;;;;1.90;1.20;;;25.10;42.80;;;;;;4994032;28;20552;-73
2023/07/05 12:09:49;;;;;;;1.77;1.10;;;25.10;41.60;;;;;;4993964;28;20448;-73
2023/07/05 12:12:20;;;;;;;2.63;1.20;;;25.10;42.10;;;;;;4994072;28;20544;-73
2023/07/05 12:14:49;;;;;;;2.17;1.13;;;25.10;42.40;;;;;;4993985;28;20448;-73
2023/07/05 12:17:18;;;;;;;1.80;1.20;;;25.20;42.50;;;;;;4993663;28;20535;-73
2023/07/05 12:19:45;;;;;;;1.70;1.00;;;25.30;42.90;;;;;;4993884;28;20487;-73
2023/07/05 12:22:18;;;;;;;1.90;1.00;;;25.50;43.20;;;;;;4994240;28;20453;-73
2023/07/05 12:24:49;;;;;;;2.20;1.10;;;25.50;42.20;;;;;;4994013;28;20865;-73
2023/07/05 12:27:21;;;;;;;1.93;1.20;;;25.30;42.30;;;;;;4994454;28;20484;-73
2023/07/05 12:29:51;;;;;;;1.80;1.10;;;25.10;41.90;;;;;;4994551;28;20433;-73
2023/07/05 12:32:20;;;;;;;2.60;1.20;;;25.30;43.20;;;;;;4994080;28;20492;-73
2023/07/05 12:34:46;;;;;;;1.73;1.10;;;25.30;43.00;;;;;;4994120;28;20446;-73
2023/07/05 12:37:30;;;;;;;2.10;1.20;;;25.40;43.10;;;;;;4994152;28;20466;-73
2023/07/05 12:40:14;;;;;;;2.30;1.37;;;25.60;42.10;;;;;;4994041;28;20560;-73
2023/07/05 12:42:53;;;;;;;1.90;1.20;;;26.00;44.60;;;;;;4996548;28;20433;-73
2023/07/05 12:45:26;;;;;;;2.30;1.30;;;26.30;42.10;;;;;;4997736;28;20855;-73
2023/07/05 12:47:53;;;;;;;2.03;1.27;;;26.30;41.80;;;;;;4997970;28;20469;-73
2023/07/05 12:50:22;;;;;;;1.80;1.17;;;26.30;41.40;;;;;;4997939;28;20520;-73
2023/07/05 12:52:59;;;;;;;1.80;1.20;;;26.50;42.30;;;;;;4998147;28;20515;-73
2023/07/05 12:55:27;;;;;;;1.70;1.00;;;26.70;42.40;;;;;;4997680;28;20433;-73
2023/07/05 12:57:55;;;;;;;2.00;1.20;;;26.80;41.80;;;;;;4997529;28;20473;-73
2023/07/05 13:00:23;;;;;;;1.80;1.20;;;26.90;41.70;;;;;;4997504;28;20568;-74
2023/07/05 13:02:53;;;;;;;2.00;1.20;;;26.80;40.70;;;;;;4997662;28;20453;-74
2023/07/05 13:05:20;;;;;;;2.43;1.00;;;26.90;41.30;;;;;;4997654;28;20552;-72
2023/07/05 13:07:52;;;;;;;1.90;1.10;;;26.80;41.80;;;;;;4997228;28;20479;-73
2023/07/05 13:10:20;;;;;;;2.07;1.07;;;26.80;41.50;;;;;;4997417;28;20440;-73
2023/07/05 13:12:49;;;;;;;2.23;1.20;;;26.80;41.80;;;;;;4998015;28;20543;-74
2023/07/05 13:15:16;;;;;;;2.40;1.63;;;26.80;42.20;;;;;;4997510;28;20449;-74
2023/07/05 13:17:45;;;;;;;2.13;1.50;;;26.90;40.60;;;;;;4996891;28;20517;-73
2023/07/05 13:20:15;;;;;;;2.17;1.33;;;26.90;40.70;;;;;;4997184;28;20516;-72
2023/07/05 13:22:46;;;;;;;1.97;1.17;;;26.80;41.70;;;;;;4997332;28;20814;-75
2023/07/05 13:25:27;;;;;;;1.90;1.30;;;26.90;43.40;;;;;;4997359;28;20433;-72
2023/07/05 13:27:55;;;;;;;2.00;1.20;;;27.10;43.30;;;;;;4997178;28;20560;-74
2023/07/05 13:30:23;;;;;;;2.00;1.10;;;27.30;42.50;;;;;;4996917;28;20452;-73
2023/07/05 13:32:54;;;;;;;2.50;1.40;;;27.30;40.90;;;;;;4997038;28;20460;-73
2023/07/05 13:35:21;;;;;;;2.73;1.20;;;27.30;41.00;;;;;;4996835;28;20838;-73
2023/07/05 13:37:48;;;;;;;1.87;1.23;;;27.00;40.20;;;;;;4996256;28;20843;-74
2023/07/05 13:40:20;;;;;;;1.80;1.07;;;27.00;42.00;;;;;;4996478;28;20492;-73
2023/07/05 13:42:48;;;;;;;1.90;1.13;;;27.20;40.80;;;;;;4996619;28;20449;-73
2023/07/05 13:45:17;;;;;;;2.20;1.20;;;27.20;41.60;;;;;;4996199;28;20513;-74
2023/07/05 13:47:44;;;;;;;1.83;1.10;;;27.10;41.80;;;;;;4996409;28;20823;-74
2023/07/05 13:50:13;;;;;;;1.80;1.20;;;27.20;40.20;;;;;;4996562;28;20508;-73
2023/07/05 13:52:41;;;;;;;1.60;1.00;;;26.80;40.70;;;;;;4995771;28;20477;-74
2023/07/05 13:55:16;;;;;;;1.70;1.00;;;26.80;39.90;;;;;;4995387;28;20965;-73
2023/07/05 13:57:53;;;;;;;2.10;1.20;;;27.00;40.40;;;;;;4996098;28;20465;-73
2023/07/05 14:00:20;;;;;;;1.83;1.30;;;27.10;40.30;;;;;;4996479;28;20561;-73
2023/07/05 14:02:48;;;;;;;1.77;1.20;;;27.20;40.00;;;;;;4996124;28;20504;-73
2023/07/05 14:05:17;;;;;;;2.00;1.30;;;27.00;41.10;;;;;;4996203;28;20450;-73
2023/07/05 14:07:44;;;;;;;2.17;1.30;;;27.10;40.30;;;;;;4996031;28;20480;-73
2023/07/05 14:10:14;;;;;;;1.90;1.17;;;27.30;41.30;;;;;;4996041;28;20500;-74
2023/07/05 14:12:41;;;;;;;3.33;1.20;;;27.30;41.10;;;;;;4996321;28;20868;-74
2023/07/05 14:15:20;;;;;;;2.57;1.20;;;27.30;40.60;;;;;;4996047;28;20453;-74
2023/07/05 14:17:47;;;;;;;2.30;1.37;;;27.30;42.50;;;;;;4996126;28;20484;-72
2023/07/05 14:20:15;;;;;;;1.90;1.10;;;27.30;43.10;;;;;;4995955;28;20488;-73
2023/07/05 14:22:42;;;;;;;1.73;1.00;;;27.30;43.90;;;;;;4995878;28;20453;-73
2023/07/05 14:25:16;;;;;;;2.73;1.30;;;27.40;44.30;;;;;;4995987;28;20454;-73
2023/07/05 14:27:42;;;;;;;1.80;1.20;;;27.40;43.10;;;;;;4995823;28;20854;-74
2023/07/05 14:30:12;;;;;;;1.80;1.00;;;27.50;44.40;;;;;;4995822;28;20454;-74
2023/07/05 14:32:39;;;;;;;1.90;1.03;;;27.50;43.10;;;;;;4996140;28;20441;-74
2023/07/05 14:35:14;;;;;;;1.70;1.10;;;27.40;42.80;;;;;;4995786;28;20865;-74
2023/07/05 14:37:46;;;;;;;1.73;0.93;;;27.20;42.90;;;;;;4995616;28;20531;-74
2023/07/05 14:40:13;;;;;;;2.80;1.10;;;27.20;44.30;;;;;;4995762;28;20590;-74
2023/07/05 14:42:40;;;;;;;4.80;1.47;;;27.30;43.00;;;;;;4995540;28;20539;-74
2023/07/05 14:45:17;;;;;;;1.87;1.13;;;27.30;42.70;;;;;;4995480;28;20504;-73
2023/07/05 14:47:50;;;;;;;1.90;1.20;;;27.40;44.40;;;;;;4995259;28;20564;-73
2023/07/05 14:50:17;;;;;;;1.60;1.00;;;27.80;42.90;;;;;;4995267;28;20429;-74
2023/07/05 14:52:46;;;;;;;2.00;1.07;;;28.10;43.20;;;;;;4995279;28;20484;-74
2023/07/05 14:55:14;;;;;;;2.17;1.37;;;28.10;41.60;;;;;;4994917;28;20461;-74
2023/07/05 14:57:42;;;;;;;3.43;1.17;;;28.10;41.50;;;;;;4995065;28;20516;-74
2023/07/05 15:00:10;;;;;;;1.77;1.20;;;28.00;42.50;;;;;;4995005;28;21068;-73
2023/07/05 15:02:38;;;;;;;2.20;1.60;;;27.90;42.30;;;;;;4995218;28;20492;-73
2023/07/05 15:05:06;;;;;;;2.60;1.30;;;27.80;43.00;;;;;;4994502;28;20866;-73
2023/07/05 15:07:32;;;;;;;2.10;1.23;;;27.90;42.50;;;;;;4995277;28;20473;-73
2023/07/05 15:10:00;;;;;;;1.90;1.00;;;27.60;42.80;;;;;;4995095;28;20802;-73
2023/07/05 15:12:27;;;;;;;1.80;1.10;;;27.70;42.60;;;;;;4995034;28;20456;-73
2023/07/05 15:14:54;;;;;;;2.07;1.17;;;27.70;42.70;;;;;;4995014;28;20456;-74
2023/07/05 15:17:20;;;;;;;2.30;1.53;;;27.80;42.00;;;;;;4994679;28;20481;-73
2023/07/05 15:19:50;;;;;;;2.50;1.10;;;27.90;42.30;;;;;;4994753;28;20484;-73
2023/07/05 15:22:16;;;;;;;2.20;1.27;;;27.90;42.20;;;;;;4994732;28;20449;-74
2023/07/05 15:24:43;;;;;;;2.00;1.20;;;28.00;42.20;;;;;;4994700;28;20490;-73
2023/07/05 15:27:12;;;;;;;1.97;1.10;;;27.90;42.40;;;;;;4994657;28;20524;-74
2023/07/05 15:29:39;;;;;;;2.77;1.27;;;27.80;42.10;;;;;;4994622;28;20454;-73
2023/07/05 15:32:06;;;;;;;1.80;1.00;;;27.30;42.80;;;;;;4994585;28;20445;-73
2023/07/05 15:34:34;;;;;;;2.20;1.40;;;27.20;43.20;;;;;;4994632;28;20453;-72
2023/07/05 15:37:01;;;;;;;2.50;1.30;;;27.20;43.60;;;;;;4994529;28;20480;-73
2023/07/05 15:39:27;;;;;;;1.90;1.20;;;27.50;43.60;;;;;;4994504;28;20504;-73
2023/07/05 15:41:54;;;;;;;2.37;1.33;;;27.40;42.60;;;;;;4994178;28;20939;-73
2023/07/05 15:44:23;;;;;;;1.70;1.00;;;27.10;42.40;;;;;;4994409;28;20456;-73
2023/07/05 15:46:50;;;;;;;1.90;1.00;;;27.00;41.90;;;;;;4994322;28;20560;-73
2023/07/05 15:49:16;;;;;;;2.10;1.10;;;26.80;42.50;;;;;;4994378;28;20496;-72
2023/07/05 15:51:43;;;;;;;2.93;1.27;;;26.80;42.50;;;;;;4994328;28;20449;-73
2023/07/05 15:54:10;;;;;;;2.20;1.60;;;26.70;42.50;;;;;;4994342;28;20834;-73
2023/07/05 15:56:37;;;;;;;2.67;1.33;;;26.50;43.40;;;;;;4994162;28;20477;-73
2023/07/05 15:59:12;;;;;;;1.80;1.10;;;26.60;42.90;;;;;;4994243;28;20456;-73
2023/07/05 16:01:40;;;;;;;1.70;1.00;;;26.70;42.90;;;;;;4994226;28;20476;-72
2023/07/05 16:04:07;;;;;;;2.10;1.20;;;26.90;42.90;;;;;;4994753;28;20858;-73
2023/07/05 16:06:33;;;;;;;1.80;1.13;;;26.90;43.50;;;;;;4993682;28;20949;-73
2023/07/05 16:09:00;;;;;;;1.60;1.00;;;26.70;43.40;;;;;;4993868;28;20878;-73
2023/07/05 16:11:27;;;;;;;2.50;1.10;;;26.70;42.90;;;;;;4994036;28;20500;-73
2023/07/05 16:13:54;;;;;;;1.93;1.17;;;26.70;43.30;;;;;;4994218;28;20503;-72
2023/07/05 16:16:21;;;;;;;2.03;1.00;;;26.60;43.10;;;;;;4993196;28;21033;-72
2023/07/05 16:18:49;;;;;;;2.73;1.27;;;26.40;43.90;;;;;;5020725;23;20497;-74
2023/07/05 16:21:18;;;;;;;1.90;1.20;;;26.40;43.50;;;;;;4999669;28;21005;-75
2023/07/05 16:23:45;;;;;;;1.60;0.90;;;26.10;43.10;;;;;;4998483;28;20473;-75
2023/07/05 16:26:11;;;;;;;2.23;1.00;;;25.80;44.00;;;;;;4996679;28;20458;-73
2023/07/05 16:28:38;;;;;;;1.80;1.00;;;25.80;44.30;;;;;;5014111;28;20469;-74
2023/07/05 16:31:05;;;;;;;2.10;1.03;;;25.80;43.90;;;;;;5016650;28;20816;-74
2023/07/05 16:33:32;;;;;;;1.77;1.00;;;26.10;43.80;;;;;;5014650;28;20456;-74
2023/07/05 16:36:03;;;;;;;2.00;1.00;;;26.00;43.80;;;;;;5015137;28;20452;-73
2023/07/05 16:38:30;;;;;;;2.10;1.10;;;26.10;44.80;;;;;;5013349;28;20982;-74
2023/07/05 16:40:57;;;;;;;1.80;1.00;;;26.20;44.40;;;;;;5013674;28;20476;-74
2023/07/05 16:43:24;;;;;;;3.50;1.60;;;26.30;43.40;;;;;;5013538;28;20973;-74
2023/07/05 16:45:51;;;;;;;2.00;1.30;;;26.10;43.20;;;;;;5017025;28;20544;-75
2023/07/05 16:48:18;;;;;;;1.80;1.30;;;26.00;43.90;;;;;;5015291;28;20472;-72
2023/07/05 16:50:45;;;;;;;2.40;1.00;;;25.90;44.30;;;;;;5016645;28;20531;-75
2023/07/05 16:53:13;;;;;;;2.00;1.13;;;25.90;43.80;;;;;;5015483;28;21024;-73
2023/07/05 16:55:40;;;;;;;1.90;1.20;;;25.90;44.00;;;;;;5015145;28;20475;-73
2023/07/05 16:58:07;;;;;;;2.53;1.17;;;25.70;44.10;;;;;;5014997;28;20476;-75
2023/07/05 17:00:34;;;;;;;2.67;1.10;;;25.70;44.00;;;;;;5015078;28;20488;-74